createdAt,value
2022-11-04T00:01:52.357Z,2.85
2022-11-04T00:04:21.917Z,4.70
2022-11-04T00:06:48.543Z,2.87
2022-11-04T00:09:21.078Z,3.83
2022-11-04T00:12:06.723Z,2.88
2022-11-04T00:14:34.076Z,3.45
2022-11-04T00:17:19.385Z,5.10
2022-11-04T00:20:06.138Z,4.43
2022-11-04T00:22:51.656Z,4.28
2022-11-04T00:25:36.887Z,3.97
2022-11-04T00:28:24.495Z,3.10
2022-11-04T00:30:55.236Z,6.55
2022-11-04T00:33:27.564Z,3.90
2022-11-04T00:35:57.137Z,4.53
2022-11-04T00:38:25.366Z,2.75
2022-11-04T00:40:52.005Z,5.97
2022-11-04T00:43:18.446Z,3.78
2022-11-04T00:45:45.092Z,4.87
2022-11-04T00:48:11.734Z,7.57
2022-11-04T00:50:38.477Z,2.90
2022-11-04T00:53:05.286Z,7.72
2022-11-04T00:55:31.889Z,5.43
2022-11-04T00:57:58.383Z,5.20
2022-11-04T01:00:24.835Z,6.22
2022-11-04T01:02:51.223Z,8.30
2022-11-04T01:05:17.716Z,4.20
2022-11-04T01:07:44.106Z,4.88
2022-11-04T01:10:10.653Z,3.40
2022-11-04T01:12:37.061Z,4.00
2022-11-04T01:15:03.713Z,8.38
2022-11-04T01:17:30.216Z,5.93
2022-11-04T01:19:56.592Z,7.40
2022-11-04T01:22:22.989Z,4.80
2022-11-04T01:24:49.353Z,10.50
2022-11-04T01:27:15.831Z,8.57
2022-11-04T01:29:42.264Z,4.95
2022-11-04T01:32:08.672Z,8.63
2022-11-04T01:34:39.226Z,6.83
2022-11-04T01:37:08.869Z,7.38
2022-11-04T01:39:35.248Z,4.53
2022-11-04T01:42:01.734Z,6.03
2022-11-04T01:44:47.902Z,4.20
2022-11-04T01:47:40.608Z,4.40
2022-11-04T01:50:13.197Z,3.45
2022-11-04T01:52:43.962Z,3.30
2022-11-04T01:55:15.857Z,3.70
2022-11-04T01:57:46.630Z,2.78
2022-11-04T02:00:13.985Z,7.70
2022-11-04T02:02:59.047Z,4.70
2022-11-04T02:05:25.821Z,2.45
2022-11-04T02:07:55.976Z,2.97
2022-11-04T02:10:25.822Z,4.40
2022-11-04T02:12:53.221Z,1.90
2022-11-04T02:15:36.422Z,3.78
2022-11-04T02:18:20.845Z,3.88
2022-11-04T02:20:54.598Z,4.15
2022-11-04T02:23:44.839Z,6.35
2022-11-04T02:26:29.369Z,6.33
2022-11-04T02:29:26.059Z,2.60
2022-11-04T02:32:14.807Z,3.00
2022-11-04T02:34:59.999Z,3.47
2022-11-04T02:38:05.976Z,1.52
2022-11-04T02:40:57.892Z,3.37
2022-11-04T02:43:33.514Z,2.47
2022-11-04T02:46:06.450Z,2.30
2022-11-04T02:48:46.496Z,2.42
2022-11-04T02:51:19.453Z,1.42
2022-11-04T02:53:52.516Z,3.07
2022-11-04T02:56:22.785Z,2.88
2022-11-04T02:58:58.103Z,2.33
2022-11-04T03:01:27.597Z,1.65
2022-11-04T03:04:01.904Z,6.50
2022-11-04T03:06:30.196Z,1.80
2022-11-04T03:08:59.344Z,4.75
2022-11-04T03:11:27.694Z,3.20
2022-11-04T03:14:06.502Z,1.08
2022-11-04T03:16:44.743Z,3.25
2022-11-04T03:19:37.641Z,1.83
2022-11-04T03:22:18.999Z,4.78
2022-11-04T03:27:32.885Z,3.30
2022-11-04T03:30:09.157Z,4.82
2022-11-04T03:33:18.619Z,1.87
2022-11-04T03:35:45.168Z,3.40
2022-11-04T03:38:12.282Z,2.88
2022-11-04T03:40:38.895Z,4.75
2022-11-04T03:43:14.272Z,6.63
2022-11-04T03:45:41.984Z,3.93
2022-11-04T03:48:08.548Z,3.03
2022-11-04T03:50:47.758Z,4.00
2022-11-04T03:53:18.162Z,6.40
2022-11-04T03:56:05.173Z,2.83
2022-11-04T03:58:44.204Z,4.67
2022-11-04T04:01:23.257Z,7.43
2022-11-04T04:03:59.176Z,3.83
2022-11-04T04:06:31.237Z,5.40
2022-11-04T04:09:08.928Z,6.50
2022-11-04T04:11:45.263Z,4.17
2022-11-04T04:14:39.700Z,7.20
2022-11-04T04:19:36.898Z,6.50
2022-11-04T04:22:12.283Z,6.40
2022-11-04T04:25:02.996Z,6.33
2022-11-04T04:27:31.735Z,8.55
2022-11-04T04:30:13.446Z,8.35
2022-11-04T04:32:45.779Z,16.00
2022-11-04T04:35:30.875Z,13.18
2022-11-04T04:38:21.753Z,12.40
2022-11-04T04:41:15.881Z,16.45
2022-11-04T04:44:01.814Z,15.82
2022-11-04T04:46:29.722Z,16.95
2022-11-04T04:49:03.294Z,18.27
2022-11-04T04:51:30.648Z,19.30
2022-11-04T04:53:57.129Z,17.25
2022-11-04T04:56:23.673Z,16.88
2022-11-04T04:58:50.072Z,16.50
2022-11-04T05:01:16.594Z,15.63
2022-11-04T05:03:45.301Z,18.10
2022-11-04T05:06:12.007Z,18.23
2022-11-04T05:08:38.521Z,16.88
2022-11-04T05:11:05.071Z,18.55
2022-11-04T05:13:31.624Z,17.45
2022-11-04T05:16:04.489Z,19.20
2022-11-04T05:18:31.044Z,25.80
2022-11-04T05:20:57.728Z,17.08
2022-11-04T05:23:24.234Z,20.05
2022-11-04T05:25:50.610Z,17.60
2022-11-04T05:28:17.368Z,16.80
2022-11-04T05:30:44.273Z,15.30
2022-11-04T05:33:10.930Z,16.02
2022-11-04T05:35:37.968Z,20.30
2022-11-04T05:38:04.439Z,17.25
2022-11-04T05:40:30.858Z,17.43
2022-11-04T05:42:59.709Z,16.58
2022-11-04T05:45:27.433Z,21.40
2022-11-04T05:48:01.270Z,17.98
2022-11-04T05:50:29.269Z,19.27
2022-11-04T05:53:00.172Z,20.83
2022-11-04T05:55:27.494Z,19.83
2022-11-04T05:57:57.921Z,19.40
2022-11-04T06:00:28.194Z,20.65
2022-11-04T06:02:59.158Z,19.80
2022-11-04T06:05:27.375Z,21.47
2022-11-04T06:07:54.300Z,21.45
2022-11-04T06:10:20.850Z,20.45
2022-11-04T06:12:47.408Z,18.13
2022-11-04T06:15:13.854Z,22.15
2022-11-04T06:17:40.323Z,18.87
2022-11-04T06:20:07.420Z,22.17
2022-11-04T06:22:33.848Z,23.48
2022-11-04T06:25:00.322Z,21.05
2022-11-04T06:27:26.734Z,21.25
2022-11-04T06:29:53.583Z,21.63
2022-11-04T06:32:20.255Z,17.88
2022-11-04T06:34:46.907Z,15.95
2022-11-04T06:37:13.448Z,19.23
2022-11-04T06:39:40.300Z,19.02
2022-11-04T06:42:06.760Z,17.87
2022-11-04T06:44:34.538Z,16.63
2022-11-04T06:47:01.826Z,16.88
2022-11-04T06:49:28.538Z,15.00
2022-11-04T06:51:54.989Z,22.58
2022-11-04T06:54:21.413Z,17.17
2022-11-04T06:56:49.039Z,15.05
2022-11-04T06:59:19.540Z,14.55
2022-11-04T07:01:47.165Z,18.52
2022-11-04T07:04:14.120Z,18.58
2022-11-04T07:06:44.868Z,12.30
2022-11-04T07:09:13.859Z,14.07
2022-11-04T07:11:41.143Z,14.60
2022-11-04T07:14:08.920Z,15.63
2022-11-04T07:16:35.584Z,16.05
2022-11-04T07:19:02.103Z,15.47
2022-11-04T07:21:28.781Z,13.93
2022-11-04T07:23:55.328Z,13.75
2022-11-04T07:26:21.909Z,12.95
2022-11-04T07:28:48.445Z,14.93
2022-11-04T07:31:15.923Z,16.20
2022-11-04T07:33:43.703Z,15.35
2022-11-04T07:36:13.449Z,16.15
2022-11-04T07:38:39.863Z,15.60
2022-11-04T07:41:06.611Z,14.15
2022-11-04T07:43:33.067Z,12.13
2022-11-04T07:46:06.068Z,18.05
2022-11-04T07:48:33.106Z,16.67
2022-11-04T07:51:00.988Z,13.48
2022-11-04T07:53:28.903Z,10.00
2022-11-04T07:55:55.610Z,14.03
2022-11-04T07:58:23.415Z,10.50
2022-11-04T08:00:50.130Z,12.10
2022-11-04T08:03:16.621Z,11.60
2022-11-04T08:05:43.124Z,14.25
2022-11-04T08:08:09.651Z,12.27
2022-11-04T08:10:36.167Z,13.98
2022-11-04T08:13:02.665Z,15.43
2022-11-04T08:15:29.246Z,11.88
2022-11-04T08:17:55.981Z,10.70
2022-11-04T08:20:22.441Z,13.57
2022-11-04T08:22:48.842Z,10.15
2022-11-04T08:25:15.346Z,11.32
2022-11-04T08:27:41.781Z,12.70
2022-11-04T08:30:08.998Z,11.07
2022-11-04T08:32:35.458Z,12.57
2022-11-04T08:35:01.882Z,11.05
2022-11-04T08:37:28.280Z,11.48
2022-11-04T08:39:54.714Z,11.20
2022-11-04T08:42:21.133Z,12.60
2022-11-04T08:44:51.444Z,14.20
2022-11-04T08:47:18.136Z,11.00
2022-11-04T08:49:44.587Z,13.13
2022-11-04T08:52:11.119Z,12.05
2022-11-04T08:54:37.596Z,9.32
2022-11-04T08:57:04.165Z,15.33
2022-11-04T08:59:30.606Z,15.05
2022-11-04T09:01:57.272Z,10.98
2022-11-04T09:04:23.997Z,10.43
2022-11-04T09:06:52.134Z,15.70
2022-11-04T09:09:19.087Z,14.93
2022-11-04T09:11:46.026Z,12.40
2022-11-04T09:14:13.062Z,10.15
2022-11-04T09:16:41.107Z,14.90
2022-11-04T09:19:07.845Z,11.55
2022-11-04T09:21:34.501Z,10.37
2022-11-04T09:24:00.955Z,12.05
2022-11-04T09:26:28.205Z,11.52
2022-11-04T09:28:56.406Z,11.63
2022-11-04T09:31:24.361Z,15.90
2022-11-04T09:33:50.988Z,14.03
2022-11-04T09:36:17.774Z,12.75
2022-11-04T09:38:44.920Z,14.32
2022-11-04T09:41:42.186Z,12.80
2022-11-04T09:44:23.747Z,17.83
2022-11-04T09:46:55.097Z,16.83
2022-11-04T09:49:22.466Z,13.45
2022-11-04T09:51:55.191Z,12.18
2022-11-04T09:54:24.245Z,15.75
2022-11-04T09:56:53.304Z,14.48
2022-11-04T09:59:32.899Z,13.83
2022-11-04T10:02:27.140Z,14.85
2022-11-04T10:05:08.929Z,12.43
2022-11-04T10:07:48.341Z,14.63
2022-11-04T10:10:46.127Z,14.27
2022-11-04T10:13:41.023Z,13.27
2022-11-04T10:16:16.264Z,13.93
2022-11-04T10:19:02.218Z,10.30
2022-11-04T10:21:43.841Z,12.65
2022-11-04T10:24:16.266Z,15.43
2022-11-04T10:26:44.870Z,15.53
2022-11-04T10:29:26.629Z,13.02
2022-11-04T10:31:55.979Z,16.67
2022-11-04T10:34:28.165Z,14.57
2022-11-04T10:36:55.964Z,17.15
2022-11-04T10:39:37.240Z,14.23
2022-11-04T10:42:05.110Z,12.63
2022-11-04T10:44:34.781Z,14.25
2022-11-04T10:47:44.012Z,19.77
2022-11-04T10:50:37.611Z,14.50
2022-11-04T10:53:20.876Z,17.27
2022-11-04T10:55:54.651Z,16.25
2022-11-04T10:58:47.311Z,17.20
2022-11-04T11:01:35.533Z,16.35
2022-11-04T11:04:06.802Z,15.25
2022-11-04T11:06:36.979Z,17.80
2022-11-04T11:09:19.378Z,15.68
2022-11-04T11:11:51.671Z,18.48
2022-11-04T11:14:39.713Z,15.57
2022-11-04T11:17:15.285Z,22.98
2022-11-04T11:19:58.380Z,17.97
2022-11-04T11:22:38.768Z,14.27
2022-11-04T11:25:32.543Z,16.27
2022-11-04T11:28:12.575Z,16.98
2022-11-04T11:30:46.337Z,15.05
2022-11-04T11:33:24.674Z,21.27
2022-11-04T11:36:05.154Z,18.35
2022-11-04T11:38:34.535Z,15.65
2022-11-04T11:41:24.400Z,12.00
2022-11-04T11:43:53.924Z,15.90
2022-11-04T11:46:25.631Z,12.43
2022-11-04T11:49:01.208Z,16.77
2022-11-04T11:51:37.006Z,13.23
2022-11-04T11:54:26.135Z,14.60
2022-11-04T11:57:15.329Z,14.40
2022-11-04T12:02:49.849Z,9.13
2022-11-04T12:11:17.834Z,11.90
2022-11-04T12:13:52.333Z,13.93
2022-11-04T12:16:37.461Z,12.68
2022-11-04T12:19:26.356Z,13.07
2022-11-04T12:22:14.369Z,11.90
2022-11-04T12:24:59.601Z,8.35
2022-11-04T12:27:52.360Z,12.87
2022-11-04T12:30:32.246Z,8.32
2022-11-04T12:33:21.342Z,8.75
2022-11-04T12:36:29.629Z,7.65
2022-11-04T12:39:24.108Z,11.18
2022-11-04T12:42:38.205Z,8.70
2022-11-04T12:45:34.707Z,9.20
2022-11-04T12:48:09.782Z,11.23
2022-11-04T12:50:47.676Z,8.02
2022-11-04T12:53:35.905Z,6.43
2022-11-04T12:56:10.375Z,8.17
2022-11-04T12:58:50.360Z,7.57
2022-11-04T13:01:47.050Z,5.97
2022-11-04T13:04:18.453Z,6.30
2022-11-04T13:06:47.521Z,8.40
2022-11-04T13:09:20.464Z,7.37
2022-11-04T13:11:54.856Z,8.30
2022-11-04T13:14:29.708Z,8.10
2022-11-04T13:17:00.737Z,6.93
2022-11-04T13:19:33.524Z,7.63
2022-11-04T13:22:07.178Z,8.33
2022-11-04T13:24:39.010Z,7.10
2022-11-04T13:27:29.309Z,7.13
2022-11-04T13:30:06.246Z,6.30
2022-11-04T13:32:59.410Z,6.78
2022-11-04T13:35:32.200Z,10.70
2022-11-04T13:38:22.428Z,4.05
2022-11-04T13:41:21.295Z,2.33
2022-11-04T13:43:59.551Z,4.07
2022-11-04T13:46:33.098Z,1.73
2022-11-04T13:49:05.765Z,1.80
2022-11-04T13:52:02.713Z,0.85
2022-11-04T13:54:33.059Z,1.33
2022-11-04T13:57:24.141Z,0.82
2022-11-04T14:00:06.821Z,2.72
2022-11-04T14:02:42.272Z,1.33
2022-11-04T14:05:24.377Z,0.80
2022-11-04T14:08:02.891Z,3.78
2022-11-04T14:10:50.895Z,1.10
2022-11-04T14:13:26.340Z,1.35
2022-11-04T14:16:01.947Z,1.00
2022-11-04T14:18:33.887Z,2.72
2022-11-04T14:21:10.871Z,2.20
2022-11-04T14:23:40.448Z,0.50
2022-11-04T14:26:10.574Z,0.40
2022-11-04T14:28:38.733Z,3.13
2022-11-04T14:31:16.951Z,1.92
2022-11-04T14:33:51.362Z,2.10
2022-11-04T14:36:20.658Z,0.80
2022-11-04T14:39:02.315Z,2.67
2022-11-04T14:41:28.977Z,3.77
2022-11-04T14:43:58.685Z,3.42
2022-11-04T14:46:29.479Z,2.10
2022-11-04T14:49:01.013Z,3.00
2022-11-04T14:51:33.530Z,2.00
2022-11-04T14:54:10.687Z,2.20
2022-11-04T14:56:37.135Z,2.33
2022-11-04T14:59:07.079Z,1.25
2022-11-04T15:01:36.730Z,6.55
2022-11-04T15:04:20.080Z,1.88
2022-11-04T15:06:55.321Z,4.63
2022-11-04T15:09:37.447Z,2.45
2022-11-04T15:12:30.185Z,5.80
2022-11-04T15:14:58.036Z,35.88
2022-11-04T15:17:28.270Z,42.72
2022-11-04T15:19:57.763Z,43.83
2022-11-04T15:22:24.760Z,28.05
2022-11-04T15:24:51.393Z,17.70
2022-11-04T15:27:19.789Z,6.75
2022-11-04T15:30:01.112Z,9.88
2022-11-04T15:32:28.270Z,9.60
2022-11-04T15:34:55.859Z,9.82
2022-11-04T15:37:24.155Z,9.20
2022-11-04T15:39:55.133Z,7.80
2022-11-04T15:42:39.308Z,5.80
2022-11-04T15:45:26.376Z,5.07
2022-11-04T15:48:21.283Z,5.97
2022-11-04T15:50:51.531Z,6.10
2022-11-04T15:53:18.866Z,7.68
2022-11-04T15:55:47.400Z,8.73
2022-11-04T15:58:16.184Z,7.47
2022-11-04T16:00:51.634Z,10.10
2022-11-04T16:03:20.128Z,5.07
2022-11-04T16:06:02.473Z,2.20
2022-11-04T16:08:30.248Z,6.15
2022-11-04T16:11:19.905Z,2.90
2022-11-04T16:13:47.131Z,1.80
2022-11-04T16:16:23.451Z,2.88
2022-11-04T16:18:55.701Z,3.13
2022-11-04T16:21:34.382Z,3.35
2022-11-04T16:24:11.362Z,4.30
2022-11-04T16:26:41.164Z,3.28
2022-11-04T16:29:16.607Z,5.15
2022-11-04T16:31:43.301Z,4.80
2022-11-04T16:34:12.515Z,2.00
2022-11-04T16:36:39.060Z,4.77
2022-11-04T16:39:09.880Z,2.22
2022-11-04T16:41:38.788Z,1.92
2022-11-04T16:44:15.540Z,4.57
2022-11-04T16:46:42.184Z,4.05
2022-11-04T16:49:14.237Z,4.50
2022-11-04T16:51:40.814Z,2.53
2022-11-04T16:54:08.958Z,2.38
2022-11-04T16:56:35.408Z,6.32
2022-11-04T16:59:01.863Z,6.10
2022-11-04T17:01:28.373Z,3.93
2022-11-04T17:03:54.958Z,2.40
2022-11-04T17:06:21.478Z,5.43
2022-11-04T17:08:47.909Z,7.15
2022-11-04T17:11:14.391Z,8.18
2022-11-04T17:13:40.923Z,9.37
2022-11-04T17:16:12.957Z,7.47
2022-11-04T17:18:39.366Z,6.80
2022-11-04T17:21:07.796Z,6.63
2022-11-04T17:23:34.519Z,7.28
2022-11-04T17:26:01.153Z,6.80
2022-11-04T17:28:27.573Z,6.05
2022-11-04T17:30:54.101Z,4.53
2022-11-04T17:33:20.721Z,6.47
2022-11-04T17:35:49.746Z,7.00
2022-11-04T17:38:17.562Z,5.50
2022-11-04T17:41:03.151Z,5.55
2022-11-04T17:43:48.448Z,7.28
2022-11-04T17:46:34.305Z,8.52
2022-11-04T17:49:02.793Z,4.65
2022-11-04T17:51:30.287Z,4.50
2022-11-04T17:53:56.781Z,6.13
2022-11-04T17:56:24.440Z,3.85
2022-11-04T17:58:51.658Z,6.57
2022-11-04T18:01:20.768Z,3.60
2022-11-04T18:03:47.674Z,4.07
2022-11-04T18:06:14.197Z,3.97
2022-11-04T18:08:40.670Z,3.13
2022-11-04T18:11:10.088Z,4.00
2022-11-04T18:13:37.199Z,3.35
2022-11-04T18:16:13.659Z,4.07
2022-11-04T18:18:40.733Z,4.20
2022-11-04T18:21:08.828Z,4.18
2022-11-04T18:23:35.262Z,5.30
2022-11-04T18:26:02.989Z,7.05
2022-11-04T18:28:29.589Z,7.73
2022-11-04T18:30:56.124Z,9.00
2022-11-04T18:33:22.653Z,7.40
2022-11-04T18:35:49.064Z,5.35
2022-11-04T18:38:15.500Z,6.22
2022-11-04T18:40:41.934Z,9.13
2022-11-04T18:43:09.330Z,3.90
2022-11-04T18:45:36.821Z,8.48
2022-11-04T18:48:03.557Z,8.05
2022-11-04T18:50:30.348Z,10.27
2022-11-04T18:52:56.783Z,12.77
2022-11-04T18:55:24.045Z,10.73
2022-11-04T18:57:54.548Z,14.07
2022-11-04T19:00:21.296Z,14.15
2022-11-04T19:02:47.893Z,15.95
2022-11-04T19:05:14.451Z,18.03
2022-11-04T19:07:41.999Z,13.93
2022-11-04T19:10:09.294Z,11.23
2022-11-04T19:12:54.564Z,18.40
2022-11-04T19:15:21.036Z,10.23
2022-11-04T19:17:47.657Z,12.97
2022-11-04T19:20:14.332Z,9.63
2022-11-04T19:22:41.295Z,11.63
2022-11-04T19:25:09.300Z,7.57
2022-11-04T19:27:35.919Z,9.80
2022-11-04T19:30:02.809Z,10.17
2022-11-04T19:32:29.203Z,6.50
2022-11-04T19:34:55.649Z,6.57
2022-11-04T19:37:22.077Z,8.18
2022-11-04T19:39:48.501Z,6.78
2022-11-04T19:42:34.512Z,8.77
2022-11-04T19:45:01.467Z,8.02
2022-11-04T19:47:27.856Z,5.38
2022-11-04T19:49:55.472Z,13.93
2022-11-04T19:52:21.870Z,7.75
2022-11-04T19:54:48.443Z,8.53
2022-11-04T19:57:14.991Z,8.55
2022-11-04T19:59:41.406Z,6.53
2022-11-04T20:02:08.051Z,7.25
2022-11-04T20:04:34.695Z,7.03
2022-11-04T20:07:01.220Z,10.03
2022-11-04T20:09:27.621Z,9.25
2022-11-04T20:12:12.391Z,9.30
2022-11-04T20:14:38.815Z,9.93
2022-11-04T20:17:06.915Z,13.45
2022-11-04T20:19:34.875Z,11.10
2022-11-04T20:22:01.314Z,9.23
2022-11-04T20:24:27.767Z,11.43
2022-11-04T20:26:54.290Z,11.77
2022-11-04T20:29:20.738Z,14.05
2022-11-04T20:31:47.232Z,13.03
2022-11-04T20:34:14.290Z,11.80
2022-11-04T20:36:41.284Z,11.32
2022-11-04T20:39:13.269Z,10.15
2022-11-04T20:41:39.829Z,10.10
2022-11-04T20:44:06.495Z,13.90
2022-11-04T20:46:34.724Z,14.30
2022-11-04T20:49:03.355Z,8.00
2022-11-04T20:51:32.476Z,9.82
2022-11-04T20:54:01.201Z,7.13
2022-11-04T20:56:33.493Z,7.77
2022-11-04T20:59:01.261Z,8.00
2022-11-04T21:01:33.207Z,8.23
2022-11-04T21:04:01.966Z,11.63
2022-11-04T21:06:29.106Z,9.95
2022-11-04T21:08:58.039Z,7.93
2022-11-04T21:11:30.409Z,9.32
2022-11-04T21:13:58.302Z,9.32
2022-11-04T21:16:24.741Z,7.78
2022-11-04T21:18:51.266Z,12.82
2022-11-04T21:21:17.702Z,8.77
2022-11-04T21:23:46.007Z,10.02
2022-11-04T21:26:19.681Z,11.60
2022-11-04T21:28:46.141Z,14.98
2022-11-04T21:31:12.977Z,18.05
2022-11-04T21:33:39.771Z,18.50
2022-11-04T21:36:08.778Z,12.27
2022-11-04T21:38:35.236Z,11.60
2022-11-04T21:41:29.775Z,9.90
2022-11-04T21:43:58.101Z,11.40
2022-11-04T21:46:25.689Z,14.10
2022-11-04T21:48:52.211Z,12.93
2022-11-04T21:51:22.216Z,11.93
2022-11-04T21:53:48.647Z,10.23
2022-11-04T21:56:18.423Z,11.63
2022-11-04T21:58:45.692Z,9.07
2022-11-04T22:01:15.210Z,10.77
2022-11-04T22:03:42.106Z,9.27
2022-11-04T22:06:10.854Z,8.50
2022-11-04T22:08:38.112Z,7.50
2022-11-04T22:11:10.301Z,8.43
2022-11-04T22:13:36.873Z,8.38
2022-11-04T22:16:15.489Z,9.57
2022-11-04T22:18:42.541Z,8.88
2022-11-04T22:21:13.016Z,9.23
2022-11-04T22:23:39.892Z,11.93
2022-11-04T22:26:12.262Z,10.13
2022-11-04T22:28:38.665Z,7.35
2022-11-04T22:31:14.215Z,9.32
2022-11-04T22:33:40.749Z,10.82
2022-11-04T22:36:08.264Z,13.53
2022-11-04T22:38:36.342Z,9.13
2022-11-04T22:41:04.377Z,8.05
2022-11-04T22:43:30.870Z,8.88
2022-11-04T22:45:58.449Z,8.40
2022-11-04T22:48:24.960Z,8.93
2022-11-04T22:50:57.732Z,7.53
2022-11-04T22:53:25.459Z,9.45
2022-11-04T22:55:53.061Z,10.80
2022-11-04T22:58:19.737Z,5.80
2022-11-04T23:00:46.526Z,5.67
2022-11-04T23:03:13.312Z,7.72
2022-11-04T23:05:40.086Z,4.55
2022-11-04T23:08:06.479Z,14.80
2022-11-04T23:10:51.630Z,7.07
2022-11-04T23:13:36.643Z,4.93
2022-11-04T23:16:21.447Z,7.18
2022-11-04T23:18:50.949Z,7.00
2022-11-04T23:21:38.745Z,4.03
2022-11-04T23:24:24.082Z,6.40
2022-11-04T23:26:50.836Z,7.20
2022-11-04T23:29:36.631Z,6.05
2022-11-04T23:32:03.990Z,7.13
2022-11-04T23:34:48.772Z,8.55
2022-11-04T23:37:15.709Z,6.75
2022-11-04T23:39:46.204Z,4.70
2022-11-04T23:42:22.930Z,7.75
2022-11-04T23:45:14.694Z,4.93
2022-11-04T23:48:05.622Z,3.70
2022-11-04T23:50:53.103Z,6.10
2022-11-04T23:53:39.451Z,5.30
2022-11-04T23:56:24.715Z,4.18
2022-11-04T23:59:09.563Z,4.55
